| Date | Time | Temp. (oF) | Dew Point (oF) | Rel. Hum. (%) | Press. (in.) | Wind Dir. | Wind Speed (mph) | Hourly Rainfall (in.) |
|
|---|---|---|---|---|---|---|---|---|---|
| 1 | 05/14 | 00:00 | 52 | 43 | 74 | 29.88 | NW | 2 | 0.00 |
| 2 | 05/13 | 23:00 | 52 | 43 | 73 | 29.88 | SW | 4 | 0.00 |
| 3 | 05/13 | 22:00 | 53 | 44 | 72 | 29.88 | SW | 2 | 0.00 |
| 4 | 05/13 | 21:00 | 53 | 44 | 73 | 29.86 | WNW | 4 | 0.00 |
| 5 | 05/13 | 20:00 | 54 | 45 | 74 | 29.84 | WNW | 13 | 0.00 |
| 6 | 05/13 | 19:00 | 54 | 48 | 82 | 29.82 | W | 3 | 0.01 |
| 7 | 05/13 | 18:00 | 56 | 45 | 69 | 29.81 | W | 6 | 0.00 |
| 8 | 05/13 | 17:00 | 57 | 45 | 66 | 29.79 | WSW | 5 | 0.00 |
| 9 | 05/13 | 16:00 | 57 | 44 | 64 | 29.77 | WNW | 11 | 0.00 |
| 10 | 05/13 | 15:00 | 58 | 46 | 65 | 29.77 | WNW | 12 | 0.00 |
| 11 | 05/13 | 14:00 | 56 | 45 | 68 | 29.76 | WNW | 19 | 0.00 |
| 12 | 05/13 | 13:00 | 56 | 44 | 66 | 29.75 | SW | 5 | 0.00 |
| 13 | miss | miss | miss | miss | miss | miss | miss | miss | |
| 14 | 05/13 | 10:36 | 12 | -47 | 5 | 0.00 | WSW | 15 | 8.00 |
| 15 | 05/13 | 10:00 | 54 | 44 | 70 | 29.73 | W | 8 | 0.00 |
| 16 | 05/13 | 09:00 | 53 | 44 | 74 | 29.73 | W | 4 | 0.00 |
| 17 | 05/13 | 08:00 | 53 | 44 | 74 | 29.72 | W | 8 | 0.00 |
| 18 | 05/13 | 07:00 | 52 | 44 | 75 | 29.70 | W | 4 | 0.00 |
| 19 | 05/13 | 06:00 | 51 | 44 | 78 | 29.69 | W | 6 | 0.00 |
| 20 | 05/13 | 05:00 | 51 | 44 | 78 | 29.69 | WNW | 5 | 0.00 |
| 21 | 05/13 | 04:00 | 51 | 44 | 79 | 29.68 | WSW | 7 | 0.00 |
| 22 | 05/13 | 03:00 | 51 | 44 | 78 | 29.68 | SSW | 5 | 0.00 |
| 23 | 05/13 | 02:00 | 50 | 43 | 79 | 29.68 | SSW | 4 | 0.00 |
| 24 | 05/13 | 01:00 | 51 | 44 | 77 | 29.69 | WSW | 1 | 0.00 |